Time;durP1;ratioP1;P1;durP2;ratioP2;P2;SDS_P1;SDS_P2;PMS_P1;PMS_P2;Temp;Humidity;BMP_temperature;BMP_pressure;BME280_temperature;BME280_humidity;BME280_pressure;Samples;Min_cycle;Max_cycle;Signal;HPM_P1;HPM_P2
2023/09/12 00:02:02;;;;;;;25.98;22.75;;;20.50;99.90;;;;;;4995607;28;20134;-81
2023/09/12 00:04:28;;;;;;;23.85;19.98;;;20.50;99.90;;;;;;4987361;28;20417;-81
2023/09/12 00:06:53;;;;;;;28.20;22.15;;;20.50;99.90;;;;;;4993484;28;22032;-82
2023/09/12 00:09:19;;;;;;;26.15;22.50;;;20.50;99.90;;;;;;4995947;28;20038;-81
2023/09/12 00:11:44;;;;;;;31.00;23.50;;;20.40;99.90;;;;;;4997333;28;20394;-83
2023/09/12 00:14:14;;;;;;;24.10;20.98;;;20.40;99.90;;;;;;4996330;28;20045;-82
2023/09/12 00:16:39;;;;;;;29.88;23.05;;;20.30;99.90;;;;;;4977828;28;20069;-81
2023/09/12 00:19:05;;;;;;;29.35;23.08;;;20.30;99.90;;;;;;4994330;28;20557;-82
2023/09/12 00:21:30;;;;;;;26.83;22.00;;;20.40;99.90;;;;;;4994673;28;20045;-82
2023/09/12 00:23:56;;;;;;;30.58;23.52;;;20.40;99.90;;;;;;4994594;28;20052;-81
2023/09/12 00:26:21;;;;;;;29.75;24.15;;;20.40;99.90;;;;;;4992995;28;20405;-81
2023/09/12 00:28:47;;;;;;;25.90;21.92;;;20.40;99.90;;;;;;4994813;28;20042;-82
2023/09/12 00:31:12;;;;;;;29.52;24.88;;;20.50;99.90;;;;;;4994247;28;20049;-81
2023/09/12 00:33:38;;;;;;;31.35;25.38;;;20.50;99.90;;;;;;4995599;28;20042;-81
2023/09/12 00:36:04;;;;;;;28.50;23.55;;;20.40;99.90;;;;;;4995465;28;20125;-82
2023/09/12 00:38:29;;;;;;;28.23;22.42;;;20.30;99.90;;;;;;4993573;28;20482;-82
2023/09/12 00:40:55;;;;;;;32.00;24.98;;;20.30;99.90;;;;;;4977819;28;20051;-83
2023/09/12 00:43:20;;;;;;;29.08;23.55;;;20.20;99.90;;;;;;4994169;28;20085;-82
2023/09/12 00:45:46;;;;;;;29.75;23.63;;;20.10;99.90;;;;;;4995479;28;20560;-81
2023/09/12 00:48:13;;;;;;;30.77;24.52;;;20.10;99.90;;;;;;4994049;28;20614;-81
2023/09/12 00:50:39;;;;;;;27.42;23.38;;;20.10;99.90;;;;;;4995548;28;20030;-81
2023/09/12 00:53:06;;;;;;;29.30;24.45;;;20.10;99.90;;;;;;4994912;28;20093;-81
2023/09/12 00:55:34;;;;;;;33.88;24.80;;;20.10;99.90;;;;;;4978685;28;20046;-81
2023/09/12 00:58:01;;;;;;;28.70;24.30;;;20.10;99.90;;;;;;4994069;28;20049;-82
2023/09/12 01:00:26;;;;;;;31.40;25.92;;;20.10;99.90;;;;;;4979392;28;20030;-82
2023/09/12 01:02:53;;;;;;;33.08;25.13;;;20.20;99.90;;;;;;4994575;28;20125;-82
2023/09/12 01:05:20;;;;;;;32.60;25.27;;;20.20;99.90;;;;;;4995607;28;20097;-82
2023/09/12 01:07:46;;;;;;;42.17;25.55;;;20.20;99.90;;;;;;4994360;28;20101;-81
2023/09/12 01:10:12;;;;;;;29.25;24.25;;;20.20;99.90;;;;;;4995414;28;20437;-82
2023/09/12 01:12:38;;;;;;;31.42;25.65;;;20.10;99.90;;;;;;4993515;28;20095;-82
2023/09/12 01:15:13;;;;;;;32.45;23.98;;;20.10;99.90;;;;;;4997603;28;20046;-82
2023/09/12 01:17:42;;;;;;;29.30;24.67;;;20.00;99.90;;;;;;4997124;28;20042;-82
2023/09/12 01:20:14;;;;;;;28.90;24.83;;;20.10;99.90;;;;;;5013420;28;20031;-82
2023/09/12 01:23:10;;;;;;;26.50;23.53;;;20.00;99.90;;;;;;4996218;28;20041;-82
2023/09/12 01:25:51;;;;;;;31.73;25.88;;;20.00;99.90;;;;;;5012571;28;20053;-81
2023/09/12 01:28:17;;;;;;;32.80;24.58;;;20.00;99.90;;;;;;4996690;28;20261;-81
2023/09/12 01:30:45;;;;;;;28.50;24.10;;;20.00;99.90;;;;;;4995781;28;20038;-82
2023/09/12 01:33:11;;;;;;;29.52;24.35;;;20.00;99.90;;;;;;4994304;28;20092;-81
2023/09/12 01:35:36;;;;;;;34.33;28.63;;;20.00;99.90;;;;;;4978122;28;20449;-82
2023/09/12 01:38:02;;;;;;;35.00;27.95;;;20.00;99.90;;;;;;4994213;28;20038;-82
2023/09/12 01:40:36;;;;;;;31.42;25.15;;;19.90;99.90;;;;;;4994734;28;20498;-83
2023/09/12 01:43:04;;;;;;;28.00;24.42;;;19.90;99.90;;;;;;4993900;28;20098;-82
2023/09/12 01:45:29;;;;;;;30.13;24.92;;;19.90;99.90;;;;;;4987768;28;20034;-81
2023/09/12 01:47:55;;;;;;;30.52;24.40;;;19.90;99.90;;;;;;4994842;28;20046;-81
2023/09/12 01:50:22;;;;;;;26.63;23.27;;;19.90;99.90;;;;;;4993624;28;20070;-81
2023/09/12 01:52:49;;;;;;;28.42;24.52;;;19.90;99.90;;;;;;4993481;28;20125;-82
2023/09/12 01:55:15;;;;;;;37.55;27.55;;;19.80;99.90;;;;;;4991850;28;20034;-81
2023/09/12 01:57:41;;;;;;;33.45;26.13;;;19.80;99.90;;;;;;4977945;28;20038;-81
2023/09/12 02:00:07;;;;;;;29.45;25.65;;;19.70;99.90;;;;;;4993598;28;20387;-82
2023/09/12 02:02:33;;;;;;;28.85;24.50;;;19.60;99.90;;;;;;4979590;28;20084;-81
2023/09/12 02:05:19;;;;;;;34.10;26.73;;;19.60;99.90;;;;;;4991113;28;20129;-82
2023/09/12 02:07:46;;;;;;;30.25;23.52;;;19.60;99.90;;;;;;4993776;28;20045;-82
2023/09/12 02:10:12;;;;;;;28.67;25.35;;;19.50;99.90;;;;;;4993435;28;20045;-81
2023/09/12 02:12:37;;;;;;;29.38;25.17;;;19.50;99.90;;;;;;4993150;28;20042;-81
2023/09/12 02:15:04;;;;;;;33.33;25.02;;;19.40;99.90;;;;;;4992108;28;20477;-82
2023/09/12 02:17:29;;;;;;;33.63;25.65;;;19.40;99.90;;;;;;4993055;28;20180;-81
2023/09/12 02:19:55;;;;;;;26.88;22.67;;;19.30;99.90;;;;;;4991942;28;20554;-81
2023/09/12 02:22:20;;;;;;;30.60;25.15;;;19.30;99.90;;;;;;4986733;28;20042;-81
2023/09/12 02:24:46;;;;;;;31.23;24.75;;;19.20;99.90;;;;;;4992859;28;20038;-80
2023/09/12 02:27:11;;;;;;;27.52;23.15;;;19.20;99.90;;;;;;4993832;28;20110;-81
2023/09/12 02:29:39;;;;;;;29.00;24.42;;;19.10;99.90;;;;;;4994384;28;20034;-81
2023/09/12 02:32:05;;;;;;;28.38;23.00;;;19.20;99.90;;;;;;4990346;28;20449;-81
2023/09/12 02:34:31;;;;;;;30.05;23.85;;;19.20;99.90;;;;;;4991271;28;20042;-81
2023/09/12 02:36:56;;;;;;;33.30;26.42;;;19.10;99.90;;;;;;4990384;28;20056;-81
2023/09/12 02:39:22;;;;;;;30.45;24.35;;;19.10;99.90;;;;;;5007453;28;20505;-80
2023/09/12 02:41:47;;;;;;;32.05;26.13;;;19.00;99.90;;;;;;4990813;28;20050;-81
2023/09/12 02:44:13;;;;;;;32.45;25.65;;;19.00;99.90;;;;;;4975270;28;20042;-80
2023/09/12 02:46:38;;;;;;;34.55;25.73;;;19.10;99.90;;;;;;4990833;28;20042;-80
2023/09/12 02:49:04;;;;;;;32.47;25.50;;;19.10;99.90;;;;;;4991224;28;20414;-80
2023/09/12 02:51:29;;;;;;;32.70;23.95;;;19.00;99.90;;;;;;4991262;28;20042;-81
2023/09/12 02:53:55;;;;;;;30.52;24.80;;;19.10;99.90;;;;;;4991231;28;20065;-81
2023/09/12 02:56:21;;;;;;;31.35;24.92;;;19.20;99.90;;;;;;4990795;28;20035;-80
2023/09/12 02:58:47;;;;;;;32.72;25.17;;;19.10;99.90;;;;;;4991104;28;20104;-81
2023/09/12 03:01:20;;;;;;;31.30;25.20;;;19.20;99.90;;;;;;4991669;28;20528;-81
2023/09/12 03:03:46;;;;;;;30.75;23.85;;;19.20;99.90;;;;;;4991905;28;20046;-82
2023/09/12 03:06:13;;;;;;;30.38;24.20;;;19.20;99.90;;;;;;4975199;28;20142;-82
2023/09/12 03:08:39;;;;;;;36.25;27.35;;;19.20;99.90;;;;;;4992007;28;20117;-82
2023/09/12 03:11:07;;;;;;;32.78;24.67;;;19.30;99.90;;;;;;4992285;28;20034;-82
2023/09/12 03:13:33;;;;;;;30.65;24.40;;;19.30;99.90;;;;;;4991386;28;20502;-81
2023/09/12 03:15:58;;;;;;;31.73;25.67;;;19.30;99.90;;;;;;4990591;28;20467;-81
2023/09/12 03:18:24;;;;;;;32.20;24.85;;;19.30;99.90;;;;;;4991332;28;20034;-81
2023/09/12 03:20:49;;;;;;;33.08;25.73;;;19.30;99.90;;;;;;4991885;28;20501;-80
2023/09/12 03:23:15;;;;;;;35.08;25.27;;;19.30;99.90;;;;;;4991872;28;20061;-81
2023/09/12 03:25:40;;;;;;;35.13;25.95;;;19.30;99.90;;;;;;4976211;28;20102;-81
2023/09/12 03:28:07;;;;;;;29.88;23.83;;;19.30;99.90;;;;;;4992939;28;20096;-81
2023/09/12 03:30:37;;;;;;;33.97;26.63;;;19.30;99.90;;;;;;4976021;28;20038;-82
2023/09/12 03:33:03;;;;;;;29.67;23.65;;;19.20;99.90;;;;;;4976668;28;20038;-82
2023/09/12 03:35:31;;;;;;;33.25;24.30;;;19.20;99.90;;;;;;4992312;28;20070;-81
2023/09/12 03:37:56;;;;;;;31.30;24.00;;;19.20;99.90;;;;;;4990955;28;20061;-82
2023/09/12 03:40:22;;;;;;;29.05;23.00;;;19.20;99.90;;;;;;4990822;28;20038;-82
2023/09/12 03:42:47;;;;;;;31.52;23.58;;;19.20;99.90;;;;;;4992380;28;20123;-81
2023/09/12 03:45:13;;;;;;;31.35;24.30;;;19.10;99.90;;;;;;4992779;28;20046;-81
2023/09/12 03:47:38;;;;;;;30.02;23.08;;;19.10;99.90;;;;;;4990527;28;20030;-83
2023/09/12 03:50:04;;;;;;;31.25;23.75;;;19.00;99.90;;;;;;4991147;28;20034;-82
2023/09/12 03:52:30;;;;;;;29.13;23.52;;;19.00;99.90;;;;;;4991370;28;20142;-82
2023/09/12 03:54:55;;;;;;;35.22;24.45;;;19.00;99.90;;;;;;4991062;28;20125;-82
2023/09/12 03:57:21;;;;;;;31.70;25.05;;;18.90;99.90;;;;;;4989716;28;20120;-83
2023/09/12 03:59:47;;;;;;;32.42;25.00;;;18.90;99.90;;;;;;4994015;28;20129;-82
2023/09/12 04:02:12;;;;;;;32.08;24.58;;;18.90;99.90;;;;;;4995519;28;20517;-82
2023/09/12 04:04:38;;;;;;;34.15;24.50;;;18.90;99.90;;;;;;4994928;28;20038;-81
2023/09/12 04:07:04;;;;;;;32.05;23.65;;;18.80;99.90;;;;;;4995343;28;20038;-81
2023/09/12 04:09:30;;;;;;;33.47;23.65;;;18.80;99.90;;;;;;4994133;28;20041;-82
2023/09/12 04:11:56;;;;;;;30.20;22.95;;;18.80;99.90;;;;;;4994706;28;20042;-81
2023/09/12 04:14:22;;;;;;;28.92;22.27;;;18.80;99.90;;;;;;4978006;28;20096;-82
2023/09/12 04:16:47;;;;;;;28.80;21.88;;;18.80;99.90;;;;;;4993975;28;20042;-82
2023/09/12 04:19:16;;;;;;;29.77;22.95;;;18.80;99.90;;;;;;4994206;28;20074;-83
2023/09/12 04:21:42;;;;;;;28.02;21.42;;;18.70;99.90;;;;;;4994557;28;20038;-82
2023/09/12 04:24:08;;;;;;;29.13;21.00;;;18.60;99.90;;;;;;4991277;28;20048;-81
2023/09/12 04:26:34;;;;;;;25.75;20.38;;;18.60;99.90;;;;;;4992858;28;20062;-81
2023/09/12 04:28:59;;;;;;;25.10;20.90;;;18.60;99.90;;;;;;4983475;28;20409;-81
2023/09/12 04:31:25;;;;;;;27.63;20.55;;;18.50;99.90;;;;;;4995012;28;20041;-82
2023/09/12 04:33:52;;;;;;;26.90;20.98;;;18.40;99.90;;;;;;4996480;28;20074;-81
2023/09/12 04:36:18;;;;;;;25.83;19.85;;;18.40;99.90;;;;;;4994718;28;20062;-81
2023/09/12 04:38:43;;;;;;;39.03;21.58;;;18.40;99.90;;;;;;4994820;28;20501;-82
2023/09/12 04:41:15;;;;;;;39.03;21.88;;;18.40;99.90;;;;;;4996172;28;20038;-81
2023/09/12 04:43:41;;;;;;;36.58;20.52;;;18.30;99.90;;;;;;4994720;28;20038;-81
2023/09/12 04:46:06;;;;;;;58.90;19.25;;;18.30;99.90;;;;;;4977710;28;20041;-82
2023/09/12 04:48:32;;;;;;;38.45;21.25;;;18.30;99.90;;;;;;4994065;28;20556;-82
2023/09/12 04:50:58;;;;;;;54.40;20.70;;;18.30;99.90;;;;;;4994695;28;20088;-82
2023/09/12 04:53:23;;;;;;;98.53;22.50;;;18.30;99.90;;;;;;4993176;28;20121;-81
2023/09/12 04:55:51;;;;;;;110.28;19.92;;;18.30;99.90;;;;;;4993246;28;20514;-81
2023/09/12 04:58:17;;;;;;;76.20;19.00;;;18.20;99.90;;;;;;4981856;28;20056;-82
2023/09/12 05:00:42;;;;;;;65.65;19.63;;;18.20;99.90;;;;;;4989458;28;20110;-82
2023/09/12 05:03:08;;;;;;;56.47;17.27;;;18.20;99.90;;;;;;4991197;28;20050;-82
2023/09/12 05:05:36;;;;;;;95.40;19.55;;;18.10;99.90;;;;;;4977582;28;20069;-81
2023/09/12 05:08:02;;;;;;;125.95;21.27;;;18.10;99.90;;;;;;4978043;28;20046;-81
2023/09/12 05:10:27;;;;;;;188.48;23.50;;;18.10;99.90;;;;;;4992869;28;20046;-81
2023/09/12 05:12:53;;;;;;;142.35;20.98;;;18.10;99.90;;;;;;4995433;28;20160;-82
2023/09/12 05:15:18;;;;;;;30.33;16.55;;;18.10;99.90;;;;;;4994151;28;20034;-82
2023/09/12 05:17:44;;;;;;;45.30;19.65;;;18.10;99.90;;;;;;4994971;28;20060;-82
2023/09/12 05:20:10;;;;;;;46.45;21.20;;;18.10;99.90;;;;;;4995400;28;20421;-82
2023/09/12 05:22:35;;;;;;;72.85;23.50;;;18.10;99.90;;;;;;4988052;28;20034;-82
2023/09/12 05:25:01;;;;;;;29.88;21.52;;;18.20;99.90;;;;;;4980998;28;20034;-78
2023/09/12 05:27:26;;;;;;;69.85;24.05;;;18.20;99.90;;;;;;4990282;28;20049;-82
2023/09/12 05:29:52;;;;;;;223.45;30.52;;;18.20;99.90;;;;;;5002265;28;20034;-83
2023/09/12 05:32:17;;;;;;;99.70;27.02;;;18.20;99.90;;;;;;4993503;28;20034;-82
2023/09/12 05:34:45;;;;;;;108.95;27.25;;;18.20;99.90;;;;;;4989944;28;20041;-82
2023/09/12 05:37:10;;;;;;;200.05;29.95;;;18.20;99.90;;;;;;4989524;28;20061;-82
2023/09/12 05:39:36;;;;;;;91.95;26.83;;;18.20;99.90;;;;;;4990572;28;20110;-81
2023/09/12 05:42:02;;;;;;;138.35;28.33;;;18.20;99.90;;;;;;4974396;28;20494;-81
2023/09/12 05:44:27;;;;;;;245.00;33.03;;;18.30;99.90;;;;;;4971866;28;20125;-81
2023/09/12 05:46:53;;;;;;;170.45;32.33;;;18.30;99.90;;;;;;4989631;28;20069;-82
2023/09/12 05:49:19;;;;;;;112.43;28.77;;;18.30;99.90;;;;;;4989327;28;20038;-81
2023/09/12 05:51:44;;;;;;;67.07;28.90;;;18.30;99.90;;;;;;4989273;28;20089;-81
2023/09/12 05:54:11;;;;;;;236.52;35.28;;;18.30;99.90;;;;;;4978954;28;20031;-80
2023/09/12 05:56:37;;;;;;;163.68;33.05;;;18.30;99.90;;;;;;4984736;28;20042;-81
2023/09/12 05:59:02;;;;;;;165.75;33.35;;;18.30;99.90;;;;;;4990110;28;20049;-81
2023/09/12 06:01:28;;;;;;;173.82;32.92;;;18.30;99.90;;;;;;4988089;28;20044;-81
2023/09/12 06:03:53;;;;;;;92.32;31.52;;;18.30;99.90;;;;;;5007022;28;20125;-81
2023/09/12 06:06:19;;;;;;;106.70;32.25;;;18.30;99.90;;;;;;4989950;28;20162;-81
2023/09/12 06:08:45;;;;;;;54.20;30.42;;;18.40;99.90;;;;;;4993074;28;20520;-81
2023/09/12 06:11:10;;;;;;;51.50;26.83;;;18.40;99.90;;;;;;4996274;28;20405;-82
2023/09/12 06:13:37;;;;;;;92.43;32.75;;;18.50;99.90;;;;;;4988107;28;20031;-79
2023/09/12 06:16:05;;;;;;;50.05;28.83;;;18.50;99.90;;;;;;4988979;28;20046;-79
2023/09/12 06:18:31;;;;;;;75.28;31.42;;;18.60;99.90;;;;;;4989844;28;20046;-79
2023/09/12 06:20:58;;;;;;;102.68;33.40;;;18.60;99.90;;;;;;4989659;28;20046;-79
2023/09/12 06:23:24;;;;;;;64.80;32.08;;;18.60;99.90;;;;;;4983741;28;20102;-80
2023/09/12 06:25:50;;;;;;;73.00;31.13;;;18.70;99.90;;;;;;4985710;28;20035;-80
2023/09/12 06:28:28;;;;;;;68.72;33.40;;;18.70;99.90;;;;;;4988941;28;20433;-78
2023/09/12 06:30:54;;;;;;;71.75;31.77;;;18.70;99.90;;;;;;4990637;28;20049;-79
2023/09/12 06:33:19;;;;;;;89.80;33.90;;;18.70;99.90;;;;;;4971241;28;20046;-74
2023/09/12 06:35:49;;;;;;;56.53;30.83;;;18.70;99.90;;;;;;4990268;28;20050;-66
2023/09/12 06:38:15;;;;;;;62.88;33.55;;;18.70;99.90;;;;;;4989988;28;20049;-66
2023/09/12 06:40:42;;;;;;;92.30;35.33;;;18.70;99.90;;;;;;4988907;28;20050;-66
2023/09/12 06:43:08;;;;;;;59.78;33.92;;;18.70;99.90;;;;;;4991866;28;20101;-76
2023/09/12 06:45:36;;;;;;;61.10;32.47;;;18.70;99.90;;;;;;4974151;28;20039;-77
2023/09/12 06:48:02;;;;;;;70.70;34.25;;;18.60;99.90;;;;;;4989084;28;20117;-78
2023/09/12 06:50:27;;;;;;;57.55;35.03;;;18.70;99.90;;;;;;4989052;28;20125;-78
2023/09/12 06:52:53;;;;;;;55.13;33.67;;;18.80;99.90;;;;;;4988026;28;20065;-77
2023/09/12 06:55:18;;;;;;;68.38;32.90;;;18.80;99.90;;;;;;4989138;28;20045;-78
2023/09/12 06:57:45;;;;;;;73.32;35.50;;;18.80;99.90;;;;;;4989761;28;20097;-77
2023/09/12 07:00:11;;;;;;;56.83;33.13;;;18.90;99.90;;;;;;4988710;28;20038;-77
2023/09/12 07:02:37;;;;;;;63.45;33.95;;;18.90;99.90;;;;;;4989784;28;20542;-78
2023/09/12 07:05:03;;;;;;;51.10;30.10;;;18.90;99.90;;;;;;4978862;28;20053;-77
2023/09/12 07:07:29;;;;;;;55.88;31.20;;;18.90;99.90;;;;;;4974055;28;20035;-78
2023/09/12 07:09:54;;;;;;;52.83;33.42;;;19.00;99.90;;;;;;4990406;28;20049;-77
2023/09/12 07:12:20;;;;;;;63.35;34.33;;;19.10;99.90;;;;;;4985020;28;20502;-77
2023/09/12 07:14:45;;;;;;;58.92;33.92;;;19.10;99.90;;;;;;4990221;28;20509;-77
2023/09/12 07:17:11;;;;;;;55.63;33.92;;;19.20;99.90;;;;;;4989263;28;20125;-77
2023/09/12 07:19:36;;;;;;;60.75;33.67;;;19.30;99.90;;;;;;4990205;28;20057;-78
2023/09/12 07:22:03;;;;;;;47.75;31.17;;;19.40;99.90;;;;;;4972760;28;20038;-76
2023/09/12 07:24:28;;;;;;;51.55;33.08;;;19.50;99.90;;;;;;4986977;28;20117;-78
2023/09/12 07:26:54;;;;;;;44.58;28.83;;;19.60;99.90;;;;;;4989980;28;20030;-77
2023/09/12 07:29:19;;;;;;;55.50;33.67;;;19.70;99.90;;;;;;4990308;28;20056;-78
2023/09/12 07:31:45;;;;;;;56.47;33.38;;;19.80;99.90;;;;;;4986924;28;20039;-78
2023/09/12 07:34:11;;;;;;;51.47;32.30;;;19.90;99.90;;;;;;4984272;28;20053;-77
2023/09/12 07:36:38;;;;;;;62.45;35.08;;;20.00;99.90;;;;;;4992696;28;20046;-78
2023/09/12 07:39:04;;;;;;;53.35;33.42;;;20.00;99.90;;;;;;4988379;28;20509;-77
2023/09/12 07:41:30;;;;;;;53.38;33.17;;;20.10;99.90;;;;;;4992057;28;20031;-79
2023/09/12 07:43:55;;;;;;;54.55;32.90;;;20.20;99.90;;;;;;4986863;28;20114;-80
2023/09/12 07:46:21;;;;;;;55.83;33.90;;;20.20;99.90;;;;;;4984859;28;20503;-80
2023/09/12 07:48:47;;;;;;;53.85;34.80;;;20.30;99.90;;;;;;4990662;28;20046;-79
2023/09/12 07:51:17;;;;;;;55.97;34.55;;;20.30;99.90;;;;;;4990320;28;20050;-81
2023/09/12 07:53:43;;;;;;;51.55;33.67;;;20.30;99.90;;;;;;4998159;28;20050;-80
2023/09/12 07:56:12;;;;;;;54.50;33.58;;;20.30;99.90;;;;;;4991209;28;20446;-80
2023/09/12 07:58:38;;;;;;;55.30;33.58;;;20.20;99.90;;;;;;4991936;28;20034;-79
2023/09/12 08:01:08;;;;;;;52.55;32.92;;;20.10;99.90;;;;;;4991259;28;20092;-80
2023/09/12 08:03:38;;;;;;;50.90;30.90;;;20.00;99.90;;;;;;4990812;28;20103;-79
2023/09/12 08:06:05;;;;;;;51.22;33.35;;;20.00;99.90;;;;;;4992700;28;20440;-80
2023/09/12 08:08:31;;;;;;;52.33;33.03;;;19.90;99.90;;;;;;4986774;28;20505;-79
2023/09/12 08:10:57;;;;;;;51.58;33.10;;;19.90;99.90;;;;;;4968979;28;20065;-80
2023/09/12 08:13:25;;;;;;;50.58;32.42;;;19.80;99.90;;;;;;4991720;28;20046;-80
2023/09/12 08:15:51;;;;;;;51.13;31.20;;;19.80;99.90;;;;;;4993001;28;20505;-81
2023/09/12 08:18:17;;;;;;;48.65;31.40;;;19.80;99.90;;;;;;4991473;28;20045;-80
2023/09/12 08:20:43;;;;;;;51.00;31.80;;;19.80;99.90;;;;;;4992650;28;20053;-80
2023/09/12 08:23:09;;;;;;;55.22;33.58;;;19.90;99.90;;;;;;4993548;28;20046;-81
2023/09/12 08:25:34;;;;;;;51.33;31.77;;;19.90;99.90;;;;;;4993248;28;20037;-80
2023/09/12 08:28:00;;;;;;;51.13;32.83;;;19.90;99.90;;;;;;4993026;28;20045;-79
2023/09/12 08:30:25;;;;;;;54.17;33.53;;;20.00;99.90;;;;;;4993277;28;20073;-80
2023/09/12 08:32:51;;;;;;;48.97;31.30;;;20.00;99.90;;;;;;4993018;28;20034;-79
2023/09/12 08:35:16;;;;;;;50.38;31.70;;;20.10;99.90;;;;;;4976502;28;20226;-80
2023/09/12 08:37:42;;;;;;;51.88;31.80;;;20.30;99.90;;;;;;4992430;28;20041;-80
2023/09/12 08:40:10;;;;;;;48.03;32.05;;;20.50;99.90;;;;;;4991880;28;20030;-80
2023/09/12 08:42:43;;;;;;;50.72;32.53;;;20.80;99.90;;;;;;4992697;28;20417;-80
2023/09/12 08:45:15;;;;;;;49.15;32.60;;;21.10;99.90;;;;;;4992102;28;20045;-80
2023/09/12 08:47:43;;;;;;;49.13;32.38;;;21.20;99.90;;;;;;4992053;28;20034;-79
2023/09/12 08:50:14;;;;;;;47.10;32.35;;;21.30;99.90;;;;;;4989129;28;20117;-80
2023/09/12 08:52:44;;;;;;;46.65;31.77;;;21.30;99.90;;;;;;4985727;28;20026;-81
2023/09/12 08:55:10;;;;;;;46.00;30.13;;;21.50;99.90;;;;;;4982240;28;20065;-80
2023/09/12 08:57:38;;;;;;;47.53;31.38;;;21.50;99.90;;;;;;4986931;28;20065;-80
2023/09/12 09:00:14;;;;;;;43.17;30.70;;;21.50;99.90;;;;;;4989241;28;20093;-81
2023/09/12 09:02:41;;;;;;;47.22;32.13;;;21.40;99.90;;;;;;4968177;28;20080;-81
2023/09/12 09:05:09;;;;;;;44.40;30.13;;;21.20;99.90;;;;;;4990105;28;20038;-81
2023/09/12 09:07:36;;;;;;;47.92;30.67;;;21.20;99.90;;;;;;4990323;28;20042;-81
2023/09/12 09:10:07;;;;;;;49.25;31.40;;;21.20;99.90;;;;;;4988616;28;20217;-81
2023/09/12 09:12:34;;;;;;;43.03;30.25;;;21.20;99.90;;;;;;4989709;28;20517;-81
2023/09/12 09:15:21;;;;;;;46.80;31.65;;;21.20;99.90;;;;;;4985877;28;20457;-81
2023/09/12 09:17:47;;;;;;;45.78;31.00;;;21.20;99.90;;;;;;4988224;28;20078;-82
2023/09/12 09:20:31;;;;;;;50.03;33.17;;;21.20;99.90;;;;;;4972645;28;20081;-82
2023/09/12 09:22:57;;;;;;;45.17;30.38;;;21.30;99.90;;;;;;4988188;28;20042;-78
2023/09/12 09:25:23;;;;;;;48.05;32.25;;;21.20;99.90;;;;;;4985307;28;20092;-79
2023/09/12 09:27:51;;;;;;;44.47;30.65;;;21.20;99.90;;;;;;4991461;28;20045;-79
2023/09/12 09:30:18;;;;;;;49.30;32.15;;;21.10;99.90;;;;;;4991326;28;20086;-80
2023/09/12 09:32:45;;;;;;;44.85;31.52;;;21.20;99.90;;;;;;4991592;28;20557;-79
2023/09/12 09:35:11;;;;;;;47.88;31.58;;;21.20;99.90;;;;;;4991213;28;20062;-79
2023/09/12 09:37:37;;;;;;;44.83;30.95;;;21.20;99.90;;;;;;4990827;28;20042;-79
2023/09/12 09:40:06;;;;;;;49.78;33.80;;;21.30;99.90;;;;;;4990699;28;20049;-79
2023/09/12 09:42:31;;;;;;;45.80;32.03;;;21.30;99.90;;;;;;4990688;28;20438;-78
2023/09/12 09:44:57;;;;;;;47.83;32.15;;;21.30;99.90;;;;;;4990566;28;20129;-78
2023/09/12 09:47:23;;;;;;;48.78;33.78;;;21.50;99.90;;;;;;4991139;28;20063;-79
2023/09/12 09:49:51;;;;;;;50.75;33.22;;;21.60;99.90;;;;;;4991243;28;20516;-79
2023/09/12 09:52:26;;;;;;;46.08;32.03;;;21.70;99.90;;;;;;4974008;28;20039;-80
2023/09/12 09:54:52;;;;;;;45.75;31.73;;;21.90;99.90;;;;;;4984470;28;20042;-78
2023/09/12 09:57:17;;;;;;;45.95;32.10;;;22.10;99.90;;;;;;4990263;28;20046;-79
2023/09/12 09:59:50;;;;;;;42.60;30.38;;;22.20;99.90;;;;;;4990204;28;20481;-79
2023/09/12 10:02:21;;;;;;;49.03;33.53;;;22.20;99.90;;;;;;4990005;28;20047;-79
2023/09/12 10:04:47;;;;;;;45.08;31.55;;;22.30;99.90;;;;;;4989562;28;20050;-79
2023/09/12 10:07:14;;;;;;;42.65;29.88;;;22.40;99.90;;;;;;4989214;28;20034;-79
2023/09/12 10:09:41;;;;;;;43.50;30.33;;;22.50;99.90;;;;;;4995690;28;20038;-79
2023/09/12 10:12:07;;;;;;;42.67;29.38;;;22.50;99.90;;;;;;4987681;28;20075;-79
2023/09/12 10:14:35;;;;;;;41.78;28.88;;;22.70;99.90;;;;;;4988048;28;20580;-79
2023/09/12 10:17:02;;;;;;;48.47;31.02;;;23.00;99.90;;;;;;4972324;28;20528;-78
2023/09/12 10:19:55;;;;;;;44.15;29.60;;;23.20;99.90;;;;;;4989138;28;20073;-78
2023/09/12 10:22:36;;;;;;;43.10;30.05;;;23.40;99.90;;;;;;4989308;28;20035;-77
2023/09/12 10:25:02;;;;;;;42.17;30.40;;;23.40;99.90;;;;;;4986395;28;20052;-79
2023/09/12 10:27:29;;;;;;;42.90;31.02;;;23.50;99.90;;;;;;4974639;28;20061;-78
2023/09/12 10:29:59;;;;;;;39.03;27.63;;;23.50;99.90;;;;;;4990805;28;20530;-79
2023/09/12 10:32:27;;;;;;;41.28;29.50;;;23.60;99.90;;;;;;4990719;28;20038;-78
2023/09/12 10:34:53;;;;;;;42.92;29.15;;;23.60;99.90;;;;;;4974379;28;20049;-74
2023/09/12 10:37:23;;;;;;;42.30;27.90;;;23.60;99.90;;;;;;4990350;28;20038;-75
2023/09/12 10:39:49;;;;;;;37.70;27.40;;;23.50;99.90;;;;;;4990871;28;20042;-75
2023/09/12 10:42:16;;;;;;;40.22;26.70;;;23.50;99.90;;;;;;4990876;28;20042;-75
2023/09/12 10:44:44;;;;;;;35.63;26.42;;;23.60;99.90;;;;;;4990517;28;20100;-75
2023/09/12 10:47:10;;;;;;;36.92;27.25;;;23.60;99.90;;;;;;4990331;28;20042;-75
2023/09/12 10:49:37;;;;;;;38.35;26.92;;;23.50;99.90;;;;;;4992120;28;20066;-75
2023/09/12 10:52:03;;;;;;;35.58;26.45;;;23.50;99.90;;;;;;4990404;28;20117;-75
2023/09/12 10:54:39;;;;;;;39.15;26.80;;;23.50;99.90;;;;;;4990290;28;20046;-75
2023/09/12 10:57:07;;;;;;;36.40;26.38;;;23.50;99.90;;;;;;4986100;28;20034;-75
2023/09/12 10:59:36;;;;;;;36.53;26.58;;;23.60;99.90;;;;;;4990009;28;20042;-75
2023/09/12 11:02:39;;;;;;;36.70;27.10;;;23.70;99.90;;;;;;4990190;28;20034;-75
2023/09/12 11:05:06;;;;;;;36.38;26.10;;;23.80;99.90;;;;;;4987777;28;20042;-75
2023/09/12 11:07:38;;;;;;;40.17;28.15;;;23.90;99.90;;;;;;4984842;28;20030;-75
2023/09/12 11:10:12;;;;;;;39.15;26.77;;;23.90;99.90;;;;;;4983642;28;20038;-75
2023/09/12 11:12:38;;;;;;;35.53;26.77;;;23.90;99.90;;;;;;4988377;28;20117;-74
2023/09/12 11:15:08;;;;;;;35.65;26.92;;;23.90;99.90;;;;;;4987903;28;20121;-74
2023/09/12 11:17:41;;;;;;;38.67;26.33;;;23.90;99.90;;;;;;4990065;28;20042;-74
2023/09/12 11:20:10;;;;;;;38.97;28.77;;;24.00;99.90;;;;;;4986701;28;20165;-73
2023/09/12 11:22:47;;;;;;;36.50;26.65;;;23.90;99.90;;;;;;4987530;28;20298;-75
2023/09/12 11:25:25;;;;;;;34.78;25.20;;;23.90;99.90;;;;;;4986289;28;20048;-77
2023/09/12 11:27:51;;;;;;;30.98;22.55;;;24.00;99.90;;;;;;4988142;28;20362;-76
2023/09/12 11:30:21;;;;;;;36.67;25.50;;;24.10;99.90;;;;;;4991884;28;20046;-76
2023/09/12 11:32:50;;;;;;;33.00;24.30;;;24.10;99.90;;;;;;4984178;28;20118;-76
2023/09/12 11:35:16;;;;;;;32.85;24.13;;;24.20;99.90;;;;;;4988388;28;20042;-77
2023/09/12 11:37:49;;;;;;;34.00;26.88;;;24.40;99.90;;;;;;4989282;28;20045;-76
2023/09/12 11:40:15;;;;;;;31.50;24.20;;;24.50;99.90;;;;;;4989022;28;20042;-76
2023/09/12 11:42:41;;;;;;;33.22;24.00;;;24.50;99.90;;;;;;4990110;28;20101;-76
2023/09/12 11:45:10;;;;;;;30.58;23.35;;;24.60;99.90;;;;;;4973475;28;20049;-75
2023/09/12 11:47:43;;;;;;;30.08;23.90;;;24.60;99.90;;;;;;4988208;28;20040;-74
2023/09/12 11:50:31;;;;;;;32.85;24.55;;;24.70;99.90;;;;;;4987243;28;20073;-75
2023/09/12 11:53:03;;;;;;;33.80;25.58;;;24.70;99.90;;;;;;4987100;28;20056;-75
2023/09/12 11:55:37;;;;;;;33.58;24.50;;;24.80;99.90;;;;;;4989624;28;20580;-76
2023/09/12 11:58:05;;;;;;;32.72;24.30;;;25.00;99.90;;;;;;4990097;28;20042;-76
2023/09/12 12:00:32;;;;;;;30.67;22.80;;;25.00;99.90;;;;;;4989079;28;20030;-76
2023/09/12 12:02:57;;;;;;;28.77;21.63;;;25.00;99.90;;;;;;4970881;28;20153;-75
2023/09/12 12:05:23;;;;;;;27.38;21.10;;;24.90;99.90;;;;;;4988351;28;20446;-75
2023/09/12 12:07:49;;;;;;;28.95;20.58;;;24.90;99.90;;;;;;4987076;28;20034;-76
2023/09/12 12:10:16;;;;;;;29.50;20.42;;;24.90;99.90;;;;;;4989754;28;20447;-75
2023/09/12 12:12:45;;;;;;;28.30;21.23;;;25.00;99.90;;;;;;4988604;28;20068;-76
2023/09/12 12:15:11;;;;;;;27.25;20.10;;;25.20;99.90;;;;;;4988730;28;20035;-76
2023/09/12 12:17:40;;;;;;;23.73;18.83;;;25.30;99.90;;;;;;4988534;28;20046;-75
2023/09/12 12:20:09;;;;;;;22.55;18.58;;;25.20;99.90;;;;;;4990943;28;20042;-76
2023/09/12 12:22:34;;;;;;;24.98;18.13;;;25.30;99.90;;;;;;4992564;28;20034;-75
2023/09/12 12:25:09;;;;;;;20.92;16.00;;;25.40;99.90;;;;;;4994606;28;20092;-77
2023/09/12 12:27:37;;;;;;;21.05;14.32;;;25.50;99.90;;;;;;4994072;28;20043;-76